sensor_id;sensor_type;location;lat;lon;timestamp;P1;durP1;ratioP1;P2;durP2;ratioP2
43700;SDS011;58809;47.984;7.964;2023-08-08T00:00:33;5.65;;;4.10;;
43700;SDS011;58809;47.984;7.964;2023-08-08T00:03:35;5.68;;;4.00;;
43700;SDS011;58809;47.984;7.964;2023-08-08T00:06:37;7.13;;;4.57;;
43700;SDS011;58809;47.984;7.964;2023-08-08T00:09:39;7.32;;;4.65;;
43700;SDS011;58809;47.984;7.964;2023-08-08T00:12:40;7.28;;;4.63;;
43700;SDS011;58809;47.984;7.964;2023-08-08T00:15:42;8.70;;;4.90;;
43700;SDS011;58809;47.984;7.964;2023-08-08T00:18:44;8.27;;;4.90;;
43700;SDS011;58809;47.984;7.964;2023-08-08T00:21:45;5.18;;;3.90;;
43700;SDS011;58809;47.984;7.964;2023-08-08T00:24:47;6.85;;;4.28;;
43700;SDS011;58809;47.984;7.964;2023-08-08T00:27:49;9.00;;;4.65;;
43700;SDS011;58809;47.984;7.964;2023-08-08T00:30:51;7.32;;;4.82;;
43700;SDS011;58809;47.984;7.964;2023-08-08T00:33:53;9.13;;;5.53;;
43700;SDS011;58809;47.984;7.964;2023-08-08T00:36:55;9.30;;;4.80;;
43700;SDS011;58809;47.984;7.964;2023-08-08T00:39:56;6.65;;;4.82;;
43700;SDS011;58809;47.984;7.964;2023-08-08T00:43:00;7.55;;;4.90;;
43700;SDS011;58809;47.984;7.964;2023-08-08T00:46:01;5.88;;;4.63;;
43700;SDS011;58809;47.984;7.964;2023-08-08T00:49:03;9.52;;;5.25;;
43700;SDS011;58809;47.984;7.964;2023-08-08T00:52:06;7.18;;;4.82;;
43700;SDS011;58809;47.984;7.964;2023-08-08T00:55:08;8.27;;;5.18;;
43700;SDS011;58809;47.984;7.964;2023-08-08T00:58:12;8.73;;;5.45;;
43700;SDS011;58809;47.984;7.964;2023-08-08T01:01:14;10.20;;;4.90;;
43700;SDS011;58809;47.984;7.964;2023-08-08T01:04:17;8.80;;;6.45;;
43700;SDS011;58809;47.984;7.964;2023-08-08T01:07:20;7.10;;;5.57;;
43700;SDS011;58809;47.984;7.964;2023-08-08T01:10:37;5.75;;;4.65;;
43700;SDS011;58809;47.984;7.964;2023-08-08T01:13:40;7.47;;;4.85;;
43700;SDS011;58809;47.984;7.964;2023-08-08T01:16:44;6.90;;;4.82;;
43700;SDS011;58809;47.984;7.964;2023-08-08T01:19:46;7.95;;;5.18;;
43700;SDS011;58809;47.984;7.964;2023-08-08T01:26:17;8.13;;;5.53;;
43700;SDS011;58809;47.984;7.964;2023-08-08T01:32:24;10.70;;;5.22;;
43700;SDS011;58809;47.984;7.964;2023-08-08T01:35:28;5.93;;;4.57;;
43700;SDS011;58809;47.984;7.964;2023-08-08T01:38:39;7.80;;;5.80;;
43700;SDS011;58809;47.984;7.964;2023-08-08T01:41:43;8.70;;;5.20;;
43700;SDS011;58809;47.984;7.964;2023-08-08T01:44:48;7.40;;;4.82;;
43700;SDS011;58809;47.984;7.964;2023-08-08T01:47:50;8.15;;;5.30;;
43700;SDS011;58809;47.984;7.964;2023-08-08T01:50:53;9.55;;;4.82;;
43700;SDS011;58809;47.984;7.964;2023-08-08T01:53:54;7.95;;;4.93;;
43700;SDS011;58809;47.984;7.964;2023-08-08T01:56:56;7.07;;;4.72;;
43700;SDS011;58809;47.984;7.964;2023-08-08T01:59:58;7.07;;;4.80;;
43700;SDS011;58809;47.984;7.964;2023-08-08T02:03:00;6.80;;;4.57;;
43700;SDS011;58809;47.984;7.964;2023-08-08T02:06:02;10.13;;;4.80;;
43700;SDS011;58809;47.984;7.964;2023-08-08T02:09:04;6.80;;;4.25;;
43700;SDS011;58809;47.984;7.964;2023-08-08T02:12:05;8.07;;;5.15;;
43700;SDS011;58809;47.984;7.964;2023-08-08T02:15:07;6.55;;;4.53;;
43700;SDS011;58809;47.984;7.964;2023-08-08T02:18:09;6.25;;;4.80;;
43700;SDS011;58809;47.984;7.964;2023-08-08T02:21:12;8.63;;;5.47;;
43700;SDS011;58809;47.984;7.964;2023-08-08T02:24:14;8.52;;;5.03;;
43700;SDS011;58809;47.984;7.964;2023-08-08T02:27:15;6.82;;;4.43;;
43700;SDS011;58809;47.984;7.964;2023-08-08T02:30:17;6.93;;;5.45;;
43700;SDS011;58809;47.984;7.964;2023-08-08T02:33:19;8.73;;;5.43;;
43700;SDS011;58809;47.984;7.964;2023-08-08T02:36:20;8.55;;;6.38;;
43700;SDS011;58809;47.984;7.964;2023-08-08T02:39:22;7.35;;;5.18;;
43700;SDS011;58809;47.984;7.964;2023-08-08T02:42:24;8.35;;;4.95;;
43700;SDS011;58809;47.984;7.964;2023-08-08T02:45:26;8.98;;;5.72;;
43700;SDS011;58809;47.984;7.964;2023-08-08T02:48:29;8.98;;;5.43;;
43700;SDS011;58809;47.984;7.964;2023-08-08T02:51:31;7.65;;;5.65;;
43700;SDS011;58809;47.984;7.964;2023-08-08T02:54:33;11.27;;;6.18;;
43700;SDS011;58809;47.984;7.964;2023-08-08T02:57:34;8.77;;;5.28;;
43700;SDS011;58809;47.984;7.964;2023-08-08T03:00:36;7.53;;;5.38;;
43700;SDS011;58809;47.984;7.964;2023-08-08T03:06:42;7.70;;;5.13;;
43700;SDS011;58809;47.984;7.964;2023-08-08T03:09:44;7.22;;;5.38;;
43700;SDS011;58809;47.984;7.964;2023-08-08T03:12:46;8.55;;;5.85;;
43700;SDS011;58809;47.984;7.964;2023-08-08T03:15:49;9.60;;;6.45;;
43700;SDS011;58809;47.984;7.964;2023-08-08T03:18:51;9.50;;;5.75;;
43700;SDS011;58809;47.984;7.964;2023-08-08T03:21:53;7.82;;;6.03;;
43700;SDS011;58809;47.984;7.964;2023-08-08T03:24:55;11.57;;;5.25;;
43700;SDS011;58809;47.984;7.964;2023-08-08T03:27:57;12.32;;;6.47;;
43700;SDS011;58809;47.984;7.964;2023-08-08T03:30:58;8.30;;;5.65;;
43700;SDS011;58809;47.984;7.964;2023-08-08T03:34:02;9.20;;;6.23;;
43700;SDS011;58809;47.984;7.964;2023-08-08T03:37:04;9.32;;;6.57;;
43700;SDS011;58809;47.984;7.964;2023-08-08T03:40:07;11.50;;;6.00;;
43700;SDS011;58809;47.984;7.964;2023-08-08T03:43:09;9.35;;;6.32;;
43700;SDS011;58809;47.984;7.964;2023-08-08T03:46:11;9.77;;;5.78;;
43700;SDS011;58809;47.984;7.964;2023-08-08T03:49:13;8.75;;;5.70;;
43700;SDS011;58809;47.984;7.964;2023-08-08T03:52:15;8.43;;;5.85;;
43700;SDS011;58809;47.984;7.964;2023-08-08T03:55:17;9.80;;;5.10;;
43700;SDS011;58809;47.984;7.964;2023-08-08T03:58:19;12.25;;;6.25;;
43700;SDS011;58809;47.984;7.964;2023-08-08T04:01:21;7.43;;;5.57;;
43700;SDS011;58809;47.984;7.964;2023-08-08T04:04:22;7.25;;;4.72;;
43700;SDS011;58809;47.984;7.964;2023-08-08T04:07:24;10.18;;;5.55;;
43700;SDS011;58809;47.984;7.964;2023-08-08T04:10:26;8.38;;;5.20;;
43700;SDS011;58809;47.984;7.964;2023-08-08T04:13:27;8.00;;;5.15;;
43700;SDS011;58809;47.984;7.964;2023-08-08T04:16:29;10.18;;;6.55;;
43700;SDS011;58809;47.984;7.964;2023-08-08T04:19:31;10.07;;;5.93;;
43700;SDS011;58809;47.984;7.964;2023-08-08T04:22:32;8.05;;;4.93;;
43700;SDS011;58809;47.984;7.964;2023-08-08T04:25:34;8.82;;;6.28;;
43700;SDS011;58809;47.984;7.964;2023-08-08T04:28:36;9.55;;;5.90;;
43700;SDS011;58809;47.984;7.964;2023-08-08T04:31:37;8.63;;;6.10;;
43700;SDS011;58809;47.984;7.964;2023-08-08T04:34:39;7.55;;;5.63;;
43700;SDS011;58809;47.984;7.964;2023-08-08T04:37:40;8.73;;;6.53;;
43700;SDS011;58809;47.984;7.964;2023-08-08T04:40:43;9.65;;;5.80;;
43700;SDS011;58809;47.984;7.964;2023-08-08T04:43:45;8.77;;;6.57;;
43700;SDS011;58809;47.984;7.964;2023-08-08T04:46:46;9.18;;;6.10;;
43700;SDS011;58809;47.984;7.964;2023-08-08T04:49:48;8.45;;;6.18;;
43700;SDS011;58809;47.984;7.964;2023-08-08T04:52:50;13.65;;;6.13;;
43700;SDS011;58809;47.984;7.964;2023-08-08T04:55:51;8.77;;;5.50;;
43700;SDS011;58809;47.984;7.964;2023-08-08T04:58:54;7.78;;;5.30;;
43700;SDS011;58809;47.984;7.964;2023-08-08T05:01:56;10.60;;;6.20;;
43700;SDS011;58809;47.984;7.964;2023-08-08T05:04:58;9.13;;;6.18;;
43700;SDS011;58809;47.984;7.964;2023-08-08T05:08:01;14.95;;;6.25;;
43700;SDS011;58809;47.984;7.964;2023-08-08T05:11:04;8.23;;;5.55;;
43700;SDS011;58809;47.984;7.964;2023-08-08T05:14:05;8.13;;;5.00;;
43700;SDS011;58809;47.984;7.964;2023-08-08T05:17:07;6.88;;;5.00;;
43700;SDS011;58809;47.984;7.964;2023-08-08T05:20:09;7.03;;;5.28;;
43700;SDS011;58809;47.984;7.964;2023-08-08T05:23:11;12.25;;;6.00;;
43700;SDS011;58809;47.984;7.964;2023-08-08T05:26:13;8.93;;;5.05;;
43700;SDS011;58809;47.984;7.964;2023-08-08T05:29:16;7.43;;;5.20;;
43700;SDS011;58809;47.984;7.964;2023-08-08T05:32:17;8.63;;;4.82;;
43700;SDS011;58809;47.984;7.964;2023-08-08T05:35:19;10.63;;;5.47;;
43700;SDS011;58809;47.984;7.964;2023-08-08T05:38:21;6.60;;;4.10;;
43700;SDS011;58809;47.984;7.964;2023-08-08T05:41:22;8.55;;;4.00;;
43700;SDS011;58809;47.984;7.964;2023-08-08T05:44:24;5.75;;;4.30;;
43700;SDS011;58809;47.984;7.964;2023-08-08T05:47:25;6.53;;;4.22;;
43700;SDS011;58809;47.984;7.964;2023-08-08T05:50:27;5.47;;;3.50;;
43700;SDS011;58809;47.984;7.964;2023-08-08T05:53:29;5.45;;;3.80;;
43700;SDS011;58809;47.984;7.964;2023-08-08T05:56:34;5.35;;;3.65;;
43700;SDS011;58809;47.984;7.964;2023-08-08T05:59:39;5.80;;;3.70;;
43700;SDS011;58809;47.984;7.964;2023-08-08T06:02:40;6.40;;;3.45;;
43700;SDS011;58809;47.984;7.964;2023-08-08T06:05:42;7.55;;;3.70;;
43700;SDS011;58809;47.984;7.964;2023-08-08T06:08:44;4.80;;;3.30;;
43700;SDS011;58809;47.984;7.964;2023-08-08T06:11:45;6.45;;;4.30;;
43700;SDS011;58809;47.984;7.964;2023-08-08T06:14:47;5.15;;;3.90;;
43700;SDS011;58809;47.984;7.964;2023-08-08T06:17:49;7.30;;;4.10;;
43700;SDS011;58809;47.984;7.964;2023-08-08T06:20:51;7.25;;;3.95;;
43700;SDS011;58809;47.984;7.964;2023-08-08T06:23:53;5.93;;;3.97;;
43700;SDS011;58809;47.984;7.964;2023-08-08T06:26:57;6.43;;;3.75;;
43700;SDS011;58809;47.984;7.964;2023-08-08T06:29:59;6.18;;;3.53;;
43700;SDS011;58809;47.984;7.964;2023-08-08T06:33:01;5.30;;;3.25;;
43700;SDS011;58809;47.984;7.964;2023-08-08T06:36:02;5.78;;;3.72;;
43700;SDS011;58809;47.984;7.964;2023-08-08T06:39:04;5.90;;;3.40;;
43700;SDS011;58809;47.984;7.964;2023-08-08T06:42:07;5.55;;;3.47;;
43700;SDS011;58809;47.984;7.964;2023-08-08T06:45:23;4.35;;;3.55;;
43700;SDS011;58809;47.984;7.964;2023-08-08T06:48:25;3.65;;;3.00;;
43700;SDS011;58809;47.984;7.964;2023-08-08T06:51:27;4.82;;;3.30;;
43700;SDS011;58809;47.984;7.964;2023-08-08T06:54:28;6.35;;;3.45;;
43700;SDS011;58809;47.984;7.964;2023-08-08T06:57:32;7.20;;;3.38;;
43700;SDS011;58809;47.984;7.964;2023-08-08T07:03:36;4.63;;;2.95;;
43700;SDS011;58809;47.984;7.964;2023-08-08T07:06:38;3.28;;;2.97;;
43700;SDS011;58809;47.984;7.964;2023-08-08T07:09:39;6.57;;;3.58;;
43700;SDS011;58809;47.984;7.964;2023-08-08T07:12:41;4.38;;;3.25;;
43700;SDS011;58809;47.984;7.964;2023-08-08T07:15:43;5.75;;;2.88;;
43700;SDS011;58809;47.984;7.964;2023-08-08T07:18:45;4.70;;;3.10;;
43700;SDS011;58809;47.984;7.964;2023-08-08T07:24:50;4.60;;;3.33;;
43700;SDS011;58809;47.984;7.964;2023-08-08T07:27:52;4.32;;;2.60;;
43700;SDS011;58809;47.984;7.964;2023-08-08T07:30:54;7.05;;;2.95;;
43700;SDS011;58809;47.984;7.964;2023-08-08T07:33:55;4.07;;;2.58;;
43700;SDS011;58809;47.984;7.964;2023-08-08T07:36:57;6.10;;;3.00;;
43700;SDS011;58809;47.984;7.964;2023-08-08T07:39:58;4.00;;;2.95;;
43700;SDS011;58809;47.984;7.964;2023-08-08T07:43:00;4.47;;;2.85;;
43700;SDS011;58809;47.984;7.964;2023-08-08T07:46:02;5.45;;;2.40;;
43700;SDS011;58809;47.984;7.964;2023-08-08T07:49:04;6.05;;;2.72;;
43700;SDS011;58809;47.984;7.964;2023-08-08T07:52:06;3.85;;;2.05;;
43700;SDS011;58809;47.984;7.964;2023-08-08T07:55:09;3.22;;;2.45;;
43700;SDS011;58809;47.984;7.964;2023-08-08T07:58:10;3.53;;;2.90;;
43700;SDS011;58809;47.984;7.964;2023-08-08T08:01:12;6.90;;;2.90;;
43700;SDS011;58809;47.984;7.964;2023-08-08T08:04:15;2.80;;;2.40;;
43700;SDS011;58809;47.984;7.964;2023-08-08T08:07:16;2.88;;;2.53;;
43700;SDS011;58809;47.984;7.964;2023-08-08T08:10:18;4.70;;;2.70;;
43700;SDS011;58809;47.984;7.964;2023-08-08T08:13:20;2.60;;;2.20;;
43700;SDS011;58809;47.984;7.964;2023-08-08T08:16:21;2.88;;;2.28;;
43700;SDS011;58809;47.984;7.964;2023-08-08T08:19:23;2.85;;;2.00;;
43700;SDS011;58809;47.984;7.964;2023-08-08T08:22:25;5.47;;;2.70;;
43700;SDS011;58809;47.984;7.964;2023-08-08T08:25:26;3.15;;;2.30;;
43700;SDS011;58809;47.984;7.964;2023-08-08T08:28:28;3.47;;;2.25;;
43700;SDS011;58809;47.984;7.964;2023-08-08T08:31:29;4.22;;;2.78;;
43700;SDS011;58809;47.984;7.964;2023-08-08T08:34:31;3.60;;;2.60;;
43700;SDS011;58809;47.984;7.964;2023-08-08T08:37:33;4.45;;;2.47;;
43700;SDS011;58809;47.984;7.964;2023-08-08T08:40:37;4.88;;;2.47;;
43700;SDS011;58809;47.984;7.964;2023-08-08T08:43:41;3.70;;;2.78;;
43700;SDS011;58809;47.984;7.964;2023-08-08T08:46:44;5.13;;;2.65;;
43700;SDS011;58809;47.984;7.964;2023-08-08T08:49:49;2.88;;;2.58;;
43700;SDS011;58809;47.984;7.964;2023-08-08T08:52:53;3.05;;;2.75;;
43700;SDS011;58809;47.984;7.964;2023-08-08T08:55:56;4.38;;;2.70;;
43700;SDS011;58809;47.984;7.964;2023-08-08T08:58:59;4.13;;;2.15;;
43700;SDS011;58809;47.984;7.964;2023-08-08T09:02:01;3.63;;;2.70;;
43700;SDS011;58809;47.984;7.964;2023-08-08T09:05:04;6.50;;;2.58;;
43700;SDS011;58809;47.984;7.964;2023-08-08T09:08:07;2.78;;;2.33;;
43700;SDS011;58809;47.984;7.964;2023-08-08T09:11:10;6.07;;;2.25;;
43700;SDS011;58809;47.984;7.964;2023-08-08T09:14:15;2.47;;;2.20;;
43700;SDS011;58809;47.984;7.964;2023-08-08T09:17:18;4.90;;;2.55;;
43700;SDS011;58809;47.984;7.964;2023-08-08T09:20:20;3.92;;;2.92;;
43700;SDS011;58809;47.984;7.964;2023-08-08T09:23:22;2.58;;;2.38;;
43700;SDS011;58809;47.984;7.964;2023-08-08T09:26:23;4.97;;;2.83;;
43700;SDS011;58809;47.984;7.964;2023-08-08T09:29:25;3.53;;;2.40;;
43700;SDS011;58809;47.984;7.964;2023-08-08T09:32:30;5.05;;;2.88;;
43700;SDS011;58809;47.984;7.964;2023-08-08T09:35:33;3.47;;;2.70;;
43700;SDS011;58809;47.984;7.964;2023-08-08T09:38:35;2.42;;;2.22;;
43700;SDS011;58809;47.984;7.964;2023-08-08T09:41:36;3.17;;;2.45;;
43700;SDS011;58809;47.984;7.964;2023-08-08T09:44:40;4.13;;;2.83;;
43700;SDS011;58809;47.984;7.964;2023-08-08T09:50:45;2.83;;;1.90;;
43700;SDS011;58809;47.984;7.964;2023-08-08T09:53:48;2.33;;;2.13;;
43700;SDS011;58809;47.984;7.964;2023-08-08T09:56:50;4.40;;;2.70;;
43700;SDS011;58809;47.984;7.964;2023-08-08T09:59:52;4.75;;;3.00;;
43700;SDS011;58809;47.984;7.964;2023-08-08T10:02:54;3.38;;;2.42;;
43700;SDS011;58809;47.984;7.964;2023-08-08T10:05:56;5.60;;;3.22;;
43700;SDS011;58809;47.984;7.964;2023-08-08T10:08:57;3.78;;;2.72;;
43700;SDS011;58809;47.984;7.964;2023-08-08T10:12:01;3.47;;;2.28;;
43700;SDS011;58809;47.984;7.964;2023-08-08T10:15:06;2.80;;;2.28;;
43700;SDS011;58809;47.984;7.964;2023-08-08T10:18:08;2.67;;;2.30;;
43700;SDS011;58809;47.984;7.964;2023-08-08T10:21:11;3.17;;;2.58;;
43700;SDS011;58809;47.984;7.964;2023-08-08T10:24:19;2.75;;;2.38;;
43700;SDS011;58809;47.984;7.964;2023-08-08T10:27:28;3.22;;;2.65;;
43700;SDS011;58809;47.984;7.964;2023-08-08T10:30:42;4.68;;;2.30;;
43700;SDS011;58809;47.984;7.964;2023-08-08T10:34:01;3.35;;;2.67;;
43700;SDS011;58809;47.984;7.964;2023-08-08T10:37:04;3.08;;;2.45;;
43700;SDS011;58809;47.984;7.964;2023-08-08T10:40:10;3.95;;;2.63;;
43700;SDS011;58809;47.984;7.964;2023-08-08T10:43:12;4.95;;;3.08;;
43700;SDS011;58809;47.984;7.964;2023-08-08T10:46:14;2.45;;;2.25;;
43700;SDS011;58809;47.984;7.964;2023-08-08T10:49:25;3.63;;;2.70;;
43700;SDS011;58809;47.984;7.964;2023-08-08T10:52:26;3.88;;;2.85;;
43700;SDS011;58809;47.984;7.964;2023-08-08T10:55:32;3.60;;;2.55;;
43700;SDS011;58809;47.984;7.964;2023-08-08T10:58:37;3.92;;;2.63;;
43700;SDS011;58809;47.984;7.964;2023-08-08T11:01:47;4.63;;;2.67;;
43700;SDS011;58809;47.984;7.964;2023-08-08T11:04:50;3.80;;;2.85;;
43700;SDS011;58809;47.984;7.964;2023-08-08T11:07:52;3.50;;;2.03;;
43700;SDS011;58809;47.984;7.964;2023-08-08T11:10:54;2.65;;;2.42;;
43700;SDS011;58809;47.984;7.964;2023-08-08T11:13:55;3.65;;;2.42;;
43700;SDS011;58809;47.984;7.964;2023-08-08T11:16:57;3.67;;;2.42;;
43700;SDS011;58809;47.984;7.964;2023-08-08T11:19:59;3.30;;;2.67;;
43700;SDS011;58809;47.984;7.964;2023-08-08T11:23:04;3.78;;;2.40;;
43700;SDS011;58809;47.984;7.964;2023-08-08T11:26:07;4.22;;;2.75;;
43700;SDS011;58809;47.984;7.964;2023-08-08T11:29:11;3.95;;;2.42;;
43700;SDS011;58809;47.984;7.964;2023-08-08T11:32:13;2.75;;;2.35;;
43700;SDS011;58809;47.984;7.964;2023-08-08T11:35:16;6.15;;;2.35;;
43700;SDS011;58809;47.984;7.964;2023-08-08T11:38:23;4.55;;;2.75;;
43700;SDS011;58809;47.984;7.964;2023-08-08T11:41:25;3.15;;;2.78;;
43700;SDS011;58809;47.984;7.964;2023-08-08T11:44:27;2.92;;;2.63;;
43700;SDS011;58809;47.984;7.964;2023-08-08T11:47:29;2.90;;;2.60;;
43700;SDS011;58809;47.984;7.964;2023-08-08T11:50:37;3.30;;;2.10;;
43700;SDS011;58809;47.984;7.964;2023-08-08T11:53:47;4.43;;;2.83;;
43700;SDS011;58809;47.984;7.964;2023-08-08T11:56:50;3.45;;;2.63;;
43700;SDS011;58809;47.984;7.964;2023-08-08T11:59:53;2.87;;;2.67;;
43700;SDS011;58809;47.984;7.964;2023-08-08T12:02:55;3.70;;;2.35;;
43700;SDS011;58809;47.984;7.964;2023-08-08T12:05:59;3.35;;;2.55;;
43700;SDS011;58809;47.984;7.964;2023-08-08T12:09:02;3.33;;;2.75;;
43700;SDS011;58809;47.984;7.964;2023-08-08T12:12:04;4.45;;;2.67;;
43700;SDS011;58809;47.984;7.964;2023-08-08T12:15:11;3.42;;;2.08;;
43700;SDS011;58809;47.984;7.964;2023-08-08T12:18:17;5.70;;;2.78;;
43700;SDS011;58809;47.984;7.964;2023-08-08T12:21:19;2.65;;;2.42;;
43700;SDS011;58809;47.984;7.964;2023-08-08T12:24:21;3.90;;;2.35;;
43700;SDS011;58809;47.984;7.964;2023-08-08T12:27:22;3.80;;;3.03;;
43700;SDS011;58809;47.984;7.964;2023-08-08T12:30:24;2.90;;;2.50;;
43700;SDS011;58809;47.984;7.964;2023-08-08T12:33:26;3.45;;;2.40;;
43700;SDS011;58809;47.984;7.964;2023-08-08T12:36:27;2.40;;;2.20;;
43700;SDS011;58809;47.984;7.964;2023-08-08T12:39:29;2.95;;;2.30;;
43700;SDS011;58809;47.984;7.964;2023-08-08T12:42:31;2.22;;;2.03;;
43700;SDS011;58809;47.984;7.964;2023-08-08T12:45:32;2.80;;;2.13;;
43700;SDS011;58809;47.984;7.964;2023-08-08T12:48:34;3.67;;;2.40;;
43700;SDS011;58809;47.984;7.964;2023-08-08T12:51:36;3.13;;;2.35;;
43700;SDS011;58809;47.984;7.964;2023-08-08T12:54:37;5.28;;;2.60;;
43700;SDS011;58809;47.984;7.964;2023-08-08T12:57:39;4.10;;;2.83;;
43700;SDS011;58809;47.984;7.964;2023-08-08T13:00:41;5.55;;;3.00;;
43700;SDS011;58809;47.984;7.964;2023-08-08T13:03:43;3.50;;;2.47;;
43700;SDS011;58809;47.984;7.964;2023-08-08T13:06:56;4.03;;;2.45;;
43700;SDS011;58809;47.984;7.964;2023-08-08T13:09:58;4.03;;;2.22;;
43700;SDS011;58809;47.984;7.964;2023-08-08T13:12:59;4.63;;;2.72;;
43700;SDS011;58809;47.984;7.964;2023-08-08T13:16:01;3.22;;;2.75;;
43700;SDS011;58809;47.984;7.964;2023-08-08T13:19:03;4.32;;;2.85;;
43700;SDS011;58809;47.984;7.964;2023-08-08T13:22:05;5.32;;;2.80;;
43700;SDS011;58809;47.984;7.964;2023-08-08T13:25:07;2.55;;;2.35;;
43700;SDS011;58809;47.984;7.964;2023-08-08T13:28:08;4.00;;;2.80;;
43700;SDS011;58809;47.984;7.964;2023-08-08T13:31:10;4.00;;;2.70;;
43700;SDS011;58809;47.984;7.964;2023-08-08T13:34:12;3.85;;;2.58;;
43700;SDS011;58809;47.984;7.964;2023-08-08T13:37:13;3.58;;;2.63;;
43700;SDS011;58809;47.984;7.964;2023-08-08T13:40:15;2.25;;;2.00;;
43700;SDS011;58809;47.984;7.964;2023-08-08T13:43:17;7.15;;;3.40;;
43700;SDS011;58809;47.984;7.964;2023-08-08T13:46:18;4.45;;;2.42;;
43700;SDS011;58809;47.984;7.964;2023-08-08T13:49:20;4.55;;;2.92;;
43700;SDS011;58809;47.984;7.964;2023-08-08T13:52:22;4.63;;;2.72;;
43700;SDS011;58809;47.984;7.964;2023-08-08T13:55:23;4.28;;;2.88;;
43700;SDS011;58809;47.984;7.964;2023-08-08T13:58:27;3.57;;;2.83;;
43700;SDS011;58809;47.984;7.964;2023-08-08T14:01:28;5.20;;;2.95;;
43700;SDS011;58809;47.984;7.964;2023-08-08T14:04:30;10.68;;;3.13;;
43700;SDS011;58809;47.984;7.964;2023-08-08T14:07:32;4.07;;;3.05;;
43700;SDS011;58809;47.984;7.964;2023-08-08T14:10:35;4.70;;;2.90;;
43700;SDS011;58809;47.984;7.964;2023-08-08T14:13:36;4.30;;;2.80;;
43700;SDS011;58809;47.984;7.964;2023-08-08T14:16:39;3.55;;;2.55;;
43700;SDS011;58809;47.984;7.964;2023-08-08T14:19:41;5.38;;;3.15;;
43700;SDS011;58809;47.984;7.964;2023-08-08T14:22:45;3.20;;;2.90;;
43700;SDS011;58809;47.984;7.964;2023-08-08T14:25:48;8.02;;;3.30;;
43700;SDS011;58809;47.984;7.964;2023-08-08T14:28:50;4.78;;;2.80;;
43700;SDS011;58809;47.984;7.964;2023-08-08T14:31:52;5.70;;;3.03;;
43700;SDS011;58809;47.984;7.964;2023-08-08T14:35:02;3.67;;;2.90;;
43700;SDS011;58809;47.984;7.964;2023-08-08T14:38:06;4.30;;;2.72;;
43700;SDS011;58809;47.984;7.964;2023-08-08T14:41:07;3.33;;;2.67;;
43700;SDS011;58809;47.984;7.964;2023-08-08T14:44:09;4.18;;;2.70;;
43700;SDS011;58809;47.984;7.964;2023-08-08T14:47:11;4.38;;;3.20;;
43700;SDS011;58809;47.984;7.964;2023-08-08T14:50:12;4.00;;;2.88;;
43700;SDS011;58809;47.984;7.964;2023-08-08T14:53:14;6.07;;;2.88;;
43700;SDS011;58809;47.984;7.964;2023-08-08T14:56:16;4.57;;;3.20;;
43700;SDS011;58809;47.984;7.964;2023-08-08T14:59:18;3.63;;;2.92;;
43700;SDS011;58809;47.984;7.964;2023-08-08T15:02:19;8.52;;;3.10;;
43700;SDS011;58809;47.984;7.964;2023-08-08T15:05:21;4.20;;;3.08;;
43700;SDS011;58809;47.984;7.964;2023-08-08T15:08:23;5.75;;;3.28;;
43700;SDS011;58809;47.984;7.964;2023-08-08T15:11:26;2.70;;;2.45;;
43700;SDS011;58809;47.984;7.964;2023-08-08T15:14:27;6.05;;;3.17;;
43700;SDS011;58809;47.984;7.964;2023-08-08T15:17:29;4.50;;;2.67;;
43700;SDS011;58809;47.984;7.964;2023-08-08T15:20:31;3.88;;;3.03;;
43700;SDS011;58809;47.984;7.964;2023-08-08T15:23:33;4.40;;;3.10;;
43700;SDS011;58809;47.984;7.964;2023-08-08T15:26:35;4.97;;;3.20;;
43700;SDS011;58809;47.984;7.964;2023-08-08T15:29:36;6.53;;;3.45;;
43700;SDS011;58809;47.984;7.964;2023-08-08T15:32:38;3.58;;;2.60;;
43700;SDS011;58809;47.984;7.964;2023-08-08T15:35:40;4.82;;;2.70;;
43700;SDS011;58809;47.984;7.964;2023-08-08T15:38:41;5.32;;;3.50;;
43700;SDS011;58809;47.984;7.964;2023-08-08T15:41:43;5.32;;;3.20;;
43700;SDS011;58809;47.984;7.964;2023-08-08T15:44:45;4.70;;;2.97;;
43700;SDS011;58809;47.984;7.964;2023-08-08T15:47:46;5.57;;;3.38;;
43700;SDS011;58809;47.984;7.964;2023-08-08T15:50:48;4.85;;;2.92;;
43700;SDS011;58809;47.984;7.964;2023-08-08T15:53:50;5.68;;;3.28;;
43700;SDS011;58809;47.984;7.964;2023-08-08T15:56:51;4.47;;;3.28;;
43700;SDS011;58809;47.984;7.964;2023-08-08T15:59:53;5.25;;;2.78;;
43700;SDS011;58809;47.984;7.964;2023-08-08T16:02:55;5.38;;;2.92;;
43700;SDS011;58809;47.984;7.964;2023-08-08T16:05:56;4.68;;;3.30;;
43700;SDS011;58809;47.984;7.964;2023-08-08T16:08:58;4.93;;;3.45;;
43700;SDS011;58809;47.984;7.964;2023-08-08T16:12:00;4.28;;;3.08;;
43700;SDS011;58809;47.984;7.964;2023-08-08T16:15:01;5.82;;;3.05;;
43700;SDS011;58809;47.984;7.964;2023-08-08T16:18:05;7.15;;;3.00;;
43700;SDS011;58809;47.984;7.964;2023-08-08T16:21:07;4.88;;;3.05;;
43700;SDS011;58809;47.984;7.964;2023-08-08T16:24:08;4.72;;;2.90;;
43700;SDS011;58809;47.984;7.964;2023-08-08T16:27:10;4.25;;;3.22;;
43700;SDS011;58809;47.984;7.964;2023-08-08T16:30:12;4.30;;;2.78;;
43700;SDS011;58809;47.984;7.964;2023-08-08T16:33:14;6.40;;;3.03;;
43700;SDS011;58809;47.984;7.964;2023-08-08T16:36:17;5.63;;;3.13;;
43700;SDS011;58809;47.984;7.964;2023-08-08T16:39:19;5.50;;;3.53;;
43700;SDS011;58809;47.984;7.964;2023-08-08T16:42:21;5.15;;;3.05;;
43700;SDS011;58809;47.984;7.964;2023-08-08T16:45:22;3.88;;;2.80;;
43700;SDS011;58809;47.984;7.964;2023-08-08T16:48:26;5.55;;;3.13;;
43700;SDS011;58809;47.984;7.964;2023-08-08T16:51:28;6.03;;;3.17;;
43700;SDS011;58809;47.984;7.964;2023-08-08T16:54:29;5.22;;;2.97;;
43700;SDS011;58809;47.984;7.964;2023-08-08T16:57:31;5.97;;;3.55;;
43700;SDS011;58809;47.984;7.964;2023-08-08T17:00:32;5.93;;;3.42;;
43700;SDS011;58809;47.984;7.964;2023-08-08T17:03:34;4.10;;;3.17;;
43700;SDS011;58809;47.984;7.964;2023-08-08T17:06:37;5.85;;;3.45;;
43700;SDS011;58809;47.984;7.964;2023-08-08T17:12:41;5.00;;;2.88;;
43700;SDS011;58809;47.984;7.964;2023-08-08T17:15:43;5.47;;;3.13;;
43700;SDS011;58809;47.984;7.964;2023-08-08T17:18:46;5.55;;;3.03;;
43700;SDS011;58809;47.984;7.964;2023-08-08T17:21:48;5.60;;;3.42;;
43700;SDS011;58809;47.984;7.964;2023-08-08T17:24:49;5.13;;;3.53;;
43700;SDS011;58809;47.984;7.964;2023-08-08T17:27:51;5.70;;;3.60;;
43700;SDS011;58809;47.984;7.964;2023-08-08T17:30:53;5.90;;;3.42;;
43700;SDS011;58809;47.984;7.964;2023-08-08T17:33:56;8.47;;;3.30;;
43700;SDS011;58809;47.984;7.964;2023-08-08T17:37:00;5.10;;;3.55;;
43700;SDS011;58809;47.984;7.964;2023-08-08T17:40:02;10.70;;;4.40;;
43700;SDS011;58809;47.984;7.964;2023-08-08T17:43:03;8.35;;;3.72;;
43700;SDS011;58809;47.984;7.964;2023-08-08T17:46:05;4.35;;;3.03;;
43700;SDS011;58809;47.984;7.964;2023-08-08T17:49:07;7.60;;;3.70;;
43700;SDS011;58809;47.984;7.964;2023-08-08T17:52:09;6.28;;;3.60;;
43700;SDS011;58809;47.984;7.964;2023-08-08T17:55:10;6.53;;;3.80;;
43700;SDS011;58809;47.984;7.964;2023-08-08T17:58:12;6.40;;;3.83;;
43700;SDS011;58809;47.984;7.964;2023-08-08T18:01:14;6.40;;;4.00;;
43700;SDS011;58809;47.984;7.964;2023-08-08T18:04:15;6.82;;;4.03;;
43700;SDS011;58809;47.984;7.964;2023-08-08T18:07:17;4.72;;;3.88;;
43700;SDS011;58809;47.984;7.964;2023-08-08T18:10:18;7.47;;;3.60;;
43700;SDS011;58809;47.984;7.964;2023-08-08T18:13:21;5.45;;;3.95;;
43700;SDS011;58809;47.984;7.964;2023-08-08T18:16:22;7.63;;;3.72;;
43700;SDS011;58809;47.984;7.964;2023-08-08T18:19:24;7.00;;;3.55;;
43700;SDS011;58809;47.984;7.964;2023-08-08T18:22:26;8.63;;;3.85;;
43700;SDS011;58809;47.984;7.964;2023-08-08T18:25:27;10.68;;;4.78;;
43700;SDS011;58809;47.984;7.964;2023-08-08T18:28:31;6.50;;;3.70;;
43700;SDS011;58809;47.984;7.964;2023-08-08T18:31:33;6.95;;;4.22;;
43700;SDS011;58809;47.984;7.964;2023-08-08T18:34:35;7.93;;;4.43;;
43700;SDS011;58809;47.984;7.964;2023-08-08T18:37:38;5.05;;;3.78;;
43700;SDS011;58809;47.984;7.964;2023-08-08T18:40:40;11.73;;;4.35;;